sensor_id;sensor_type;location;lat;lon;timestamp;P1;durP1;ratioP1;P2;durP2;ratioP2
72235;SDS011;60146;52.498;13.462;2023-05-16T00:01:38;12.30;;;5.87;;
72235;SDS011;60146;52.498;13.462;2023-05-16T00:04:03;9.33;;;5.83;;
72235;SDS011;60146;52.498;13.462;2023-05-16T00:06:29;7.60;;;5.33;;
72235;SDS011;60146;52.498;13.462;2023-05-16T00:08:55;8.90;;;5.27;;
72235;SDS011;60146;52.498;13.462;2023-05-16T00:11:21;9.20;;;6.20;;
72235;SDS011;60146;52.498;13.462;2023-05-16T00:13:47;7.80;;;5.40;;
72235;SDS011;60146;52.498;13.462;2023-05-16T00:16:12;8.00;;;5.47;;
72235;SDS011;60146;52.498;13.462;2023-05-16T00:18:38;9.93;;;5.93;;
72235;SDS011;60146;52.498;13.462;2023-05-16T00:21:04;7.63;;;5.70;;
72235;SDS011;60146;52.498;13.462;2023-05-16T00:23:30;9.80;;;5.77;;
72235;SDS011;60146;52.498;13.462;2023-05-16T00:25:55;9.23;;;5.90;;
72235;SDS011;60146;52.498;13.462;2023-05-16T00:28:21;10.67;;;5.90;;
72235;SDS011;60146;52.498;13.462;2023-05-16T00:30:46;11.00;;;6.00;;
72235;SDS011;60146;52.498;13.462;2023-05-16T00:33:12;13.73;;;6.20;;
72235;SDS011;60146;52.498;13.462;2023-05-16T00:35:37;10.47;;;5.80;;
72235;SDS011;60146;52.498;13.462;2023-05-16T00:38:03;9.07;;;6.37;;
72235;SDS011;60146;52.498;13.462;2023-05-16T00:40:28;9.93;;;6.07;;
72235;SDS011;60146;52.498;13.462;2023-05-16T00:42:53;9.27;;;6.13;;
72235;SDS011;60146;52.498;13.462;2023-05-16T00:45:19;9.77;;;6.43;;
72235;SDS011;60146;52.498;13.462;2023-05-16T00:47:44;10.47;;;6.77;;
72235;SDS011;60146;52.498;13.462;2023-05-16T00:50:10;11.80;;;6.77;;
72235;SDS011;60146;52.498;13.462;2023-05-16T00:52:35;11.37;;;7.27;;
72235;SDS011;60146;52.498;13.462;2023-05-16T00:55:01;10.60;;;7.50;;
72235;SDS011;60146;52.498;13.462;2023-05-16T00:57:27;11.90;;;6.80;;
72235;SDS011;60146;52.498;13.462;2023-05-16T00:59:53;12.40;;;7.20;;
72235;SDS011;60146;52.498;13.462;2023-05-16T01:02:18;10.40;;;6.97;;
72235;SDS011;60146;52.498;13.462;2023-05-16T01:04:45;11.90;;;7.30;;
72235;SDS011;60146;52.498;13.462;2023-05-16T01:07:12;11.60;;;7.07;;
72235;SDS011;60146;52.498;13.462;2023-05-16T01:09:37;12.13;;;7.43;;
72235;SDS011;60146;52.498;13.462;2023-05-16T01:12:08;13.50;;;7.30;;
72235;SDS011;60146;52.498;13.462;2023-05-16T01:15:01;12.10;;;7.32;;
72235;SDS011;60146;52.498;13.462;2023-05-16T01:20:55;14.03;;;7.50;;
72235;SDS011;60146;52.498;13.462;2023-05-16T01:23:46;14.53;;;8.00;;
72235;SDS011;60146;52.498;13.462;2023-05-16T01:26:27;16.20;;;8.30;;
72235;SDS011;60146;52.498;13.462;2023-05-16T01:28:54;15.60;;;8.87;;
72235;SDS011;60146;52.498;13.462;2023-05-16T01:31:20;14.97;;;8.90;;
72235;SDS011;60146;52.498;13.462;2023-05-16T01:33:46;18.40;;;9.70;;
72235;SDS011;60146;52.498;13.462;2023-05-16T01:39:08;18.20;;;9.60;;
72235;SDS011;60146;52.498;13.462;2023-05-16T01:41:54;16.43;;;9.80;;
72235;SDS011;60146;52.498;13.462;2023-05-16T01:45:13;18.00;;;9.67;;
72235;SDS011;60146;52.498;13.462;2023-05-16T01:47:34;23.30;;;11.23;;
72235;SDS011;60146;52.498;13.462;2023-05-16T01:50:07;23.93;;;12.70;;
72235;SDS011;60146;52.498;13.462;2023-05-16T01:52:39;17.57;;;9.37;;
72235;SDS011;60146;52.498;13.462;2023-05-16T01:55:09;17.43;;;9.80;;
72235;SDS011;60146;52.498;13.462;2023-05-16T01:57:39;18.48;;;9.43;;
72235;SDS011;60146;52.498;13.462;2023-05-16T02:00:06;14.60;;;8.60;;
72235;SDS011;60146;52.498;13.462;2023-05-16T02:02:32;16.07;;;8.93;;
72235;SDS011;60146;52.498;13.462;2023-05-16T02:04:58;14.80;;;8.57;;
72235;SDS011;60146;52.498;13.462;2023-05-16T02:07:23;15.80;;;8.90;;
72235;SDS011;60146;52.498;13.462;2023-05-16T02:09:48;19.03;;;9.70;;
72235;SDS011;60146;52.498;13.462;2023-05-16T02:12:14;16.53;;;8.53;;
72235;SDS011;60146;52.498;13.462;2023-05-16T02:14:40;18.07;;;8.93;;
72235;SDS011;60146;52.498;13.462;2023-05-16T02:17:05;15.57;;;8.53;;
72235;SDS011;60146;52.498;13.462;2023-05-16T02:19:31;16.10;;;8.93;;
72235;SDS011;60146;52.498;13.462;2023-05-16T02:21:56;17.23;;;8.57;;
72235;SDS011;60146;52.498;13.462;2023-05-16T02:24:22;17.03;;;9.20;;
72235;SDS011;60146;52.498;13.462;2023-05-16T02:26:47;18.33;;;10.07;;
72235;SDS011;60146;52.498;13.462;2023-05-16T02:29:12;16.13;;;9.67;;
72235;SDS011;60146;52.498;13.462;2023-05-16T02:31:39;15.73;;;9.20;;
72235;SDS011;60146;52.498;13.462;2023-05-16T02:34:04;18.17;;;9.30;;
72235;SDS011;60146;52.498;13.462;2023-05-16T02:36:31;16.87;;;8.90;;
72235;SDS011;60146;52.498;13.462;2023-05-16T02:38:58;18.07;;;9.33;;
72235;SDS011;60146;52.498;13.462;2023-05-16T02:41:23;19.47;;;9.10;;
72235;SDS011;60146;52.498;13.462;2023-05-16T02:43:49;15.80;;;8.17;;
72235;SDS011;60146;52.498;13.462;2023-05-16T02:46:21;16.07;;;8.53;;
72235;SDS011;60146;52.498;13.462;2023-05-16T02:48:50;17.87;;;8.53;;
72235;SDS011;60146;52.498;13.462;2023-05-16T02:51:15;18.73;;;9.07;;
72235;SDS011;60146;52.498;13.462;2023-05-16T02:53:41;16.43;;;9.23;;
72235;SDS011;60146;52.498;13.462;2023-05-16T02:56:07;18.00;;;8.93;;
72235;SDS011;60146;52.498;13.462;2023-05-16T02:58:34;15.17;;;8.30;;
72235;SDS011;60146;52.498;13.462;2023-05-16T03:00:59;19.37;;;8.53;;
72235;SDS011;60146;52.498;13.462;2023-05-16T03:03:25;16.20;;;8.53;;
72235;SDS011;60146;52.498;13.462;2023-05-16T03:05:50;15.60;;;8.87;;
72235;SDS011;60146;52.498;13.462;2023-05-16T03:08:16;15.83;;;8.23;;
72235;SDS011;60146;52.498;13.462;2023-05-16T03:10:41;17.00;;;8.87;;
72235;SDS011;60146;52.498;13.462;2023-05-16T03:13:07;15.80;;;8.60;;
72235;SDS011;60146;52.498;13.462;2023-05-16T03:15:32;20.83;;;8.13;;
72235;SDS011;60146;52.498;13.462;2023-05-16T03:17:57;16.70;;;8.73;;
72235;SDS011;60146;52.498;13.462;2023-05-16T03:20:23;17.23;;;9.00;;
72235;SDS011;60146;52.498;13.462;2023-05-16T03:22:48;18.00;;;9.13;;
72235;SDS011;60146;52.498;13.462;2023-05-16T03:25:13;19.33;;;9.03;;
72235;SDS011;60146;52.498;13.462;2023-05-16T03:27:39;18.17;;;9.03;;
72235;SDS011;60146;52.498;13.462;2023-05-16T03:30:04;18.27;;;9.37;;
72235;SDS011;60146;52.498;13.462;2023-05-16T03:32:30;19.33;;;8.90;;
72235;SDS011;60146;52.498;13.462;2023-05-16T03:34:56;18.50;;;9.50;;
72235;SDS011;60146;52.498;13.462;2023-05-16T03:37:21;23.23;;;10.00;;
72235;SDS011;60146;52.498;13.462;2023-05-16T03:39:46;19.67;;;9.07;;
72235;SDS011;60146;52.498;13.462;2023-05-16T03:42:12;16.57;;;9.33;;
72235;SDS011;60146;52.498;13.462;2023-05-16T03:44:37;20.37;;;9.23;;
72235;SDS011;60146;52.498;13.462;2023-05-16T03:47:03;15.60;;;9.40;;
72235;SDS011;60146;52.498;13.462;2023-05-16T03:49:28;18.10;;;9.23;;
72235;SDS011;60146;52.498;13.462;2023-05-16T03:51:54;19.13;;;9.83;;
72235;SDS011;60146;52.498;13.462;2023-05-16T03:54:19;21.60;;;10.00;;
72235;SDS011;60146;52.498;13.462;2023-05-16T03:56:45;20.77;;;9.30;;
72235;SDS011;60146;52.498;13.462;2023-05-16T03:59:11;16.27;;;8.90;;
72235;SDS011;60146;52.498;13.462;2023-05-16T04:01:37;21.27;;;10.07;;
72235;SDS011;60146;52.498;13.462;2023-05-16T04:04:02;20.10;;;9.63;;
72235;SDS011;60146;52.498;13.462;2023-05-16T04:06:27;18.80;;;9.27;;
72235;SDS011;60146;52.498;13.462;2023-05-16T04:08:53;20.53;;;9.83;;
72235;SDS011;60146;52.498;13.462;2023-05-16T04:11:18;23.03;;;9.87;;
72235;SDS011;60146;52.498;13.462;2023-05-16T04:13:44;25.77;;;10.37;;
72235;SDS011;60146;52.498;13.462;2023-05-16T04:16:09;20.43;;;9.63;;
72235;SDS011;60146;52.498;13.462;2023-05-16T04:18:35;18.90;;;9.80;;
72235;SDS011;60146;52.498;13.462;2023-05-16T04:21:00;17.70;;;9.70;;
72235;SDS011;60146;52.498;13.462;2023-05-16T04:23:25;18.57;;;9.13;;
72235;SDS011;60146;52.498;13.462;2023-05-16T04:25:51;19.83;;;10.10;;
72235;SDS011;60146;52.498;13.462;2023-05-16T04:28:16;20.17;;;9.73;;
72235;SDS011;60146;52.498;13.462;2023-05-16T04:30:42;21.03;;;10.60;;
72235;SDS011;60146;52.498;13.462;2023-05-16T04:33:07;19.07;;;9.80;;
72235;SDS011;60146;52.498;13.462;2023-05-16T04:35:32;18.23;;;10.10;;
72235;SDS011;60146;52.498;13.462;2023-05-16T04:37:58;19.60;;;9.93;;
72235;SDS011;60146;52.498;13.462;2023-05-16T04:40:23;21.27;;;10.43;;
72235;SDS011;60146;52.498;13.462;2023-05-16T04:42:49;18.97;;;9.90;;
72235;SDS011;60146;52.498;13.462;2023-05-16T04:45:15;23.00;;;10.50;;
72235;SDS011;60146;52.498;13.462;2023-05-16T04:47:40;26.17;;;11.10;;
72235;SDS011;60146;52.498;13.462;2023-05-16T04:50:06;23.27;;;11.53;;
72235;SDS011;60146;52.498;13.462;2023-05-16T04:52:33;25.13;;;11.83;;
72235;SDS011;60146;52.498;13.462;2023-05-16T04:54:58;21.47;;;11.17;;
72235;SDS011;60146;52.498;13.462;2023-05-16T04:57:24;24.57;;;11.70;;
72235;SDS011;60146;52.498;13.462;2023-05-16T04:59:51;21.87;;;11.07;;
72235;SDS011;60146;52.498;13.462;2023-05-16T05:02:17;24.60;;;11.67;;
72235;SDS011;60146;52.498;13.462;2023-05-16T05:04:42;25.00;;;11.67;;
72235;SDS011;60146;52.498;13.462;2023-05-16T05:07:07;25.83;;;11.77;;
72235;SDS011;60146;52.498;13.462;2023-05-16T05:09:33;25.80;;;12.13;;
72235;SDS011;60146;52.498;13.462;2023-05-16T05:11:58;25.63;;;11.07;;
72235;SDS011;60146;52.498;13.462;2023-05-16T05:14:23;21.07;;;10.07;;
72235;SDS011;60146;52.498;13.462;2023-05-16T05:16:49;20.43;;;10.77;;
72235;SDS011;60146;52.498;13.462;2023-05-16T05:19:14;22.00;;;11.13;;
72235;SDS011;60146;52.498;13.462;2023-05-16T05:21:39;24.90;;;11.00;;
72235;SDS011;60146;52.498;13.462;2023-05-16T05:24:05;24.07;;;11.40;;
72235;SDS011;60146;52.498;13.462;2023-05-16T05:26:30;23.70;;;11.23;;
72235;SDS011;60146;52.498;13.462;2023-05-16T05:28:56;25.43;;;10.87;;
72235;SDS011;60146;52.498;13.462;2023-05-16T05:31:21;22.80;;;10.03;;
72235;SDS011;60146;52.498;13.462;2023-05-16T05:33:47;20.33;;;9.70;;
72235;SDS011;60146;52.498;13.462;2023-05-16T05:36:12;22.30;;;9.80;;
72235;SDS011;60146;52.498;13.462;2023-05-16T05:38:37;22.77;;;10.07;;
72235;SDS011;60146;52.498;13.462;2023-05-16T05:41:03;21.33;;;9.63;;
72235;SDS011;60146;52.498;13.462;2023-05-16T05:43:29;23.70;;;10.23;;
72235;SDS011;60146;52.498;13.462;2023-05-16T05:45:54;22.43;;;9.83;;
72235;SDS011;60146;52.498;13.462;2023-05-16T05:48:20;18.97;;;9.30;;
72235;SDS011;60146;52.498;13.462;2023-05-16T05:50:46;20.50;;;9.77;;
72235;SDS011;60146;52.498;13.462;2023-05-16T05:53:11;23.93;;;10.20;;
72235;SDS011;60146;52.498;13.462;2023-05-16T05:55:36;21.67;;;11.20;;
72235;SDS011;60146;52.498;13.462;2023-05-16T05:58:02;21.43;;;9.87;;
72235;SDS011;60146;52.498;13.462;2023-05-16T06:00:27;21.30;;;10.10;;
72235;SDS011;60146;52.498;13.462;2023-05-16T06:02:53;19.53;;;9.60;;
72235;SDS011;60146;52.498;13.462;2023-05-16T06:05:19;16.43;;;8.47;;
72235;SDS011;60146;52.498;13.462;2023-05-16T06:07:44;16.17;;;7.73;;
72235;SDS011;60146;52.498;13.462;2023-05-16T06:10:10;14.70;;;7.43;;
72235;SDS011;60146;52.498;13.462;2023-05-16T06:12:35;13.73;;;6.47;;
72235;SDS011;60146;52.498;13.462;2023-05-16T06:15:00;15.43;;;6.70;;
72235;SDS011;60146;52.498;13.462;2023-05-16T06:17:26;13.60;;;6.67;;
72235;SDS011;60146;52.498;13.462;2023-05-16T06:19:51;12.43;;;6.60;;
72235;SDS011;60146;52.498;13.462;2023-05-16T06:22:16;15.27;;;6.27;;
72235;SDS011;60146;52.498;13.462;2023-05-16T06:24:46;11.07;;;6.37;;
72235;SDS011;60146;52.498;13.462;2023-05-16T06:27:36;15.57;;;6.47;;
72235;SDS011;60146;52.498;13.462;2023-05-16T06:30:01;12.87;;;6.43;;
72235;SDS011;60146;52.498;13.462;2023-05-16T06:32:27;11.43;;;6.47;;
72235;SDS011;60146;52.498;13.462;2023-05-16T06:34:53;10.17;;;6.13;;
72235;SDS011;60146;52.498;13.462;2023-05-16T06:37:18;11.33;;;6.50;;
72235;SDS011;60146;52.498;13.462;2023-05-16T06:39:44;11.90;;;6.60;;
72235;SDS011;60146;52.498;13.462;2023-05-16T06:42:09;11.67;;;5.73;;
72235;SDS011;60146;52.498;13.462;2023-05-16T06:44:35;11.77;;;5.90;;
72235;SDS011;60146;52.498;13.462;2023-05-16T06:47:00;12.03;;;5.70;;
72235;SDS011;60146;52.498;13.462;2023-05-16T06:49:25;11.03;;;5.70;;
72235;SDS011;60146;52.498;13.462;2023-05-16T06:51:51;11.93;;;5.57;;
72235;SDS011;60146;52.498;13.462;2023-05-16T06:54:16;10.90;;;5.27;;
72235;SDS011;60146;52.498;13.462;2023-05-16T06:56:42;10.07;;;4.87;;
72235;SDS011;60146;52.498;13.462;2023-05-16T06:59:07;13.17;;;5.37;;
72235;SDS011;60146;52.498;13.462;2023-05-16T07:01:32;10.43;;;4.73;;
72235;SDS011;60146;52.498;13.462;2023-05-16T07:03:58;8.47;;;5.00;;
72235;SDS011;60146;52.498;13.462;2023-05-16T07:06:23;10.30;;;4.60;;
72235;SDS011;60146;52.498;13.462;2023-05-16T07:08:48;9.70;;;4.80;;
72235;SDS011;60146;52.498;13.462;2023-05-16T07:11:14;12.70;;;5.20;;
72235;SDS011;60146;52.498;13.462;2023-05-16T07:13:39;8.37;;;4.43;;
72235;SDS011;60146;52.498;13.462;2023-05-16T07:16:05;8.53;;;4.40;;
72235;SDS011;60146;52.498;13.462;2023-05-16T07:18:32;9.77;;;4.57;;
72235;SDS011;60146;52.498;13.462;2023-05-16T07:20:57;10.70;;;4.50;;
72235;SDS011;60146;52.498;13.462;2023-05-16T07:23:23;8.77;;;4.20;;
72235;SDS011;60146;52.498;13.462;2023-05-16T07:25:48;10.87;;;4.40;;
72235;SDS011;60146;52.498;13.462;2023-05-16T07:28:14;13.07;;;4.43;;
72235;SDS011;60146;52.498;13.462;2023-05-16T07:30:39;9.43;;;4.03;;
72235;SDS011;60146;52.498;13.462;2023-05-16T07:33:04;10.93;;;4.00;;
72235;SDS011;60146;52.498;13.462;2023-05-16T07:35:35;11.20;;;3.90;;
72235;SDS011;60146;52.498;13.462;2023-05-16T07:38:03;6.47;;;3.57;;
72235;SDS011;60146;52.498;13.462;2023-05-16T07:40:28;7.83;;;3.97;;
72235;SDS011;60146;52.498;13.462;2023-05-16T07:42:57;8.50;;;3.83;;
72235;SDS011;60146;52.498;13.462;2023-05-16T07:45:23;8.47;;;4.10;;
72235;SDS011;60146;52.498;13.462;2023-05-16T07:47:48;7.03;;;3.77;;
72235;SDS011;60146;52.498;13.462;2023-05-16T07:50:14;6.27;;;3.10;;
72235;SDS011;60146;52.498;13.462;2023-05-16T07:52:39;8.83;;;3.30;;
72235;SDS011;60146;52.498;13.462;2023-05-16T07:55:05;6.70;;;3.07;;
72235;SDS011;60146;52.498;13.462;2023-05-16T07:57:30;11.63;;;3.33;;
72235;SDS011;60146;52.498;13.462;2023-05-16T07:59:56;5.77;;;3.27;;
72235;SDS011;60146;52.498;13.462;2023-05-16T08:02:21;5.07;;;3.00;;
72235;SDS011;60146;52.498;13.462;2023-05-16T08:04:49;11.27;;;3.27;;
72235;SDS011;60146;52.498;13.462;2023-05-16T08:07:14;5.27;;;3.40;;
72235;SDS011;60146;52.498;13.462;2023-05-16T08:09:40;5.07;;;2.80;;
72235;SDS011;60146;52.498;13.462;2023-05-16T08:12:05;7.53;;;2.80;;
72235;SDS011;60146;52.498;13.462;2023-05-16T08:14:31;10.50;;;2.93;;
72235;SDS011;60146;52.498;13.462;2023-05-16T08:16:57;8.23;;;3.03;;
72235;SDS011;60146;52.498;13.462;2023-05-16T08:19:23;5.17;;;2.87;;
72235;SDS011;60146;52.498;13.462;2023-05-16T08:21:48;4.67;;;2.50;;
72235;SDS011;60146;52.498;13.462;2023-05-16T08:24:14;2.87;;;2.17;;
72235;SDS011;60146;52.498;13.462;2023-05-16T08:26:39;6.90;;;2.70;;
72235;SDS011;60146;52.498;13.462;2023-05-16T08:29:05;6.17;;;2.47;;
72235;SDS011;60146;52.498;13.462;2023-05-16T08:31:30;3.47;;;2.00;;
72235;SDS011;60146;52.498;13.462;2023-05-16T08:33:56;4.40;;;2.40;;
72235;SDS011;60146;52.498;13.462;2023-05-16T08:36:21;3.67;;;2.47;;
72235;SDS011;60146;52.498;13.462;2023-05-16T08:38:48;5.30;;;2.50;;
72235;SDS011;60146;52.498;13.462;2023-05-16T08:41:13;6.47;;;2.60;;
72235;SDS011;60146;52.498;13.462;2023-05-16T08:43:39;3.57;;;2.47;;
72235;SDS011;60146;52.498;13.462;2023-05-16T08:46:05;7.27;;;2.20;;
72235;SDS011;60146;52.498;13.462;2023-05-16T08:48:31;4.93;;;2.43;;
72235;SDS011;60146;52.498;13.462;2023-05-16T08:50:57;4.90;;;2.03;;
72235;SDS011;60146;52.498;13.462;2023-05-16T08:53:25;6.53;;;2.37;;
72235;SDS011;60146;52.498;13.462;2023-05-16T08:55:57;4.90;;;2.00;;
72235;SDS011;60146;52.498;13.462;2023-05-16T08:58:23;4.93;;;2.00;;
72235;SDS011;60146;52.498;13.462;2023-05-16T09:00:49;7.27;;;1.80;;
72235;SDS011;60146;52.498;13.462;2023-05-16T09:03:14;6.47;;;1.97;;
72235;SDS011;60146;52.498;13.462;2023-05-16T09:05:40;4.83;;;1.80;;
72235;SDS011;60146;52.498;13.462;2023-05-16T09:08:06;7.03;;;2.03;;
72235;SDS011;60146;52.498;13.462;2023-05-16T09:10:31;6.53;;;1.60;;
72235;SDS011;60146;52.498;13.462;2023-05-16T09:12:57;6.60;;;1.73;;
72235;SDS011;60146;52.498;13.462;2023-05-16T09:15:27;3.77;;;1.73;;
72235;SDS011;60146;52.498;13.462;2023-05-16T09:17:58;4.00;;;2.10;;
72235;SDS011;60146;52.498;13.462;2023-05-16T09:20:24;6.40;;;1.60;;
72235;SDS011;60146;52.498;13.462;2023-05-16T09:22:51;5.00;;;1.80;;
72235;SDS011;60146;52.498;13.462;2023-05-16T09:25:24;3.77;;;1.53;;
72235;SDS011;60146;52.498;13.462;2023-05-16T09:27:52;6.53;;;1.60;;
72235;SDS011;60146;52.498;13.462;2023-05-16T09:30:21;5.03;;;1.40;;
72235;SDS011;60146;52.498;13.462;2023-05-16T09:32:57;4.23;;;1.47;;
72235;SDS011;60146;52.498;13.462;2023-05-16T09:35:23;4.93;;;1.60;;
72235;SDS011;60146;52.498;13.462;2023-05-16T09:37:49;6.63;;;1.77;;
72235;SDS011;60146;52.498;13.462;2023-05-16T09:40:21;3.20;;;1.30;;
72235;SDS011;60146;52.498;13.462;2023-05-16T09:42:47;3.72;;;1.35;;
72235;SDS011;60146;52.498;13.462;2023-05-16T09:45:26;3.33;;;2.10;;
72235;SDS011;60146;52.498;13.462;2023-05-16T09:47:51;5.13;;;1.50;;
72235;SDS011;60146;52.498;13.462;2023-05-16T09:50:16;6.53;;;1.40;;
72235;SDS011;60146;52.498;13.462;2023-05-16T09:52:42;4.50;;;1.97;;
72235;SDS011;60146;52.498;13.462;2023-05-16T09:55:08;2.50;;;1.40;;
72235;SDS011;60146;52.498;13.462;2023-05-16T09:57:37;3.20;;;1.60;;
72235;SDS011;60146;52.498;13.462;2023-05-16T10:00:06;2.77;;;1.40;;
72235;SDS011;60146;52.498;13.462;2023-05-16T10:02:34;6.77;;;1.40;;
72235;SDS011;60146;52.498;13.462;2023-05-16T10:05:01;4.83;;;1.80;;
72235;SDS011;60146;52.498;13.462;2023-05-16T10:07:26;4.83;;;1.60;;
72235;SDS011;60146;52.498;13.462;2023-05-16T10:09:54;5.80;;;1.80;;
72235;SDS011;60146;52.498;13.462;2023-05-16T10:12:20;6.47;;;1.50;;
72235;SDS011;60146;52.498;13.462;2023-05-16T10:14:50;5.43;;;1.63;;
72235;SDS011;60146;52.498;13.462;2023-05-16T10:17:16;2.97;;;1.33;;
72235;SDS011;60146;52.498;13.462;2023-05-16T10:19:42;4.50;;;1.30;;
72235;SDS011;60146;52.498;13.462;2023-05-16T10:22:08;6.27;;;1.80;;
72235;SDS011;60146;52.498;13.462;2023-05-16T10:24:42;6.97;;;1.93;;
72235;SDS011;60146;52.498;13.462;2023-05-16T10:27:10;3.57;;;1.47;;
72235;SDS011;60146;52.498;13.462;2023-05-16T10:29:36;7.03;;;1.80;;
72235;SDS011;60146;52.498;13.462;2023-05-16T10:32:02;5.30;;;1.83;;
72235;SDS011;60146;52.498;13.462;2023-05-16T10:34:28;5.63;;;2.00;;
72235;SDS011;60146;52.498;13.462;2023-05-16T10:36:53;6.27;;;1.80;;
72235;SDS011;60146;52.498;13.462;2023-05-16T10:39:19;6.57;;;2.10;;
72235;SDS011;60146;52.498;13.462;2023-05-16T10:41:45;9.40;;;1.83;;
72235;SDS011;60146;52.498;13.462;2023-05-16T10:44:12;7.43;;;1.90;;
72235;SDS011;60146;52.498;13.462;2023-05-16T10:46:40;9.50;;;2.70;;
72235;SDS011;60146;52.498;13.462;2023-05-16T10:49:21;4.47;;;1.90;;
72235;SDS011;60146;52.498;13.462;2023-05-16T10:52:07;5.97;;;2.37;;
72235;SDS011;60146;52.498;13.462;2023-05-16T10:54:36;4.77;;;2.03;;
72235;SDS011;60146;52.498;13.462;2023-05-16T10:57:10;6.83;;;2.00;;
72235;SDS011;60146;52.498;13.462;2023-05-16T10:59:42;9.03;;;2.10;;
72235;SDS011;60146;52.498;13.462;2023-05-16T11:05:10;6.47;;;2.10;;
72235;SDS011;60146;52.498;13.462;2023-05-16T11:07:38;7.35;;;2.33;;
72235;SDS011;60146;52.498;13.462;2023-05-16T11:12:47;6.55;;;1.88;;
72235;SDS011;60146;52.498;13.462;2023-05-16T11:15:23;11.07;;;1.80;;
72235;SDS011;60146;52.498;13.462;2023-05-16T11:18:02;10.87;;;1.93;;
72235;SDS011;60146;52.498;13.462;2023-05-16T11:20:30;5.78;;;1.67;;
72235;SDS011;60146;52.498;13.462;2023-05-16T11:25:56;8.53;;;2.00;;
72235;SDS011;60146;52.498;13.462;2023-05-16T11:28:24;9.23;;;2.27;;
72235;SDS011;60146;52.498;13.462;2023-05-16T11:30:51;5.57;;;1.87;;
72235;SDS011;60146;52.498;13.462;2023-05-16T11:33:20;8.98;;;1.60;;
72235;SDS011;60146;52.498;13.462;2023-05-16T11:35:59;7.80;;;1.80;;
72235;SDS011;60146;52.498;13.462;2023-05-16T11:38:31;6.27;;;1.73;;
72235;SDS011;60146;52.498;13.462;2023-05-16T11:41:01;7.17;;;2.03;;
72235;SDS011;60146;52.498;13.462;2023-05-16T11:43:28;9.63;;;1.87;;
72235;SDS011;60146;52.498;13.462;2023-05-16T11:45:53;5.93;;;1.60;;
72235;SDS011;60146;52.498;13.462;2023-05-16T11:48:22;4.00;;;1.60;;
72235;SDS011;60146;52.498;13.462;2023-05-16T11:50:48;7.97;;;1.93;;
72235;SDS011;60146;52.498;13.462;2023-05-16T11:53:14;7.77;;;1.40;;
72235;SDS011;60146;52.498;13.462;2023-05-16T11:55:40;10.47;;;1.90;;
72235;SDS011;60146;52.498;13.462;2023-05-16T11:58:06;6.00;;;1.50;;
72235;SDS011;60146;52.498;13.462;2023-05-16T12:00:31;4.13;;;1.50;;
72235;SDS011;60146;52.498;13.462;2023-05-16T12:03:01;5.20;;;1.30;;
72235;SDS011;60146;52.498;13.462;2023-05-16T12:05:31;6.95;;;1.50;;
72235;SDS011;60146;52.498;13.462;2023-05-16T12:07:57;4.38;;;1.48;;
72235;SDS011;60146;52.498;13.462;2023-05-16T12:10:23;6.17;;;1.80;;
72235;SDS011;60146;52.498;13.462;2023-05-16T12:12:49;7.95;;;1.48;;
72235;SDS011;60146;52.498;13.462;2023-05-16T12:15:16;7.57;;;1.50;;
72235;SDS011;60146;52.498;13.462;2023-05-16T12:17:42;6.03;;;1.50;;
72235;SDS011;60146;52.498;13.462;2023-05-16T12:20:08;8.03;;;1.87;;
72235;SDS011;60146;52.498;13.462;2023-05-16T12:22:41;8.05;;;1.58;;
72235;SDS011;60146;52.498;13.462;2023-05-16T12:25:28;10.07;;;1.80;;
72235;SDS011;60146;52.498;13.462;2023-05-16T12:28:01;8.50;;;1.47;;
72235;SDS011;60146;52.498;13.462;2023-05-16T12:30:28;6.73;;;1.57;;
72235;SDS011;60146;52.498;13.462;2023-05-16T12:32:56;6.57;;;1.87;;
72235;SDS011;60146;52.498;13.462;2023-05-16T12:35:32;7.53;;;1.50;;
72235;SDS011;60146;52.498;13.462;2023-05-16T12:37:58;4.27;;;1.43;;
72235;SDS011;60146;52.498;13.462;2023-05-16T12:40:27;7.33;;;1.50;;
72235;SDS011;60146;52.498;13.462;2023-05-16T12:42:53;5.40;;;1.40;;
72235;SDS011;60146;52.498;13.462;2023-05-16T12:45:20;8.80;;;1.67;;
72235;SDS011;60146;52.498;13.462;2023-05-16T12:47:47;6.03;;;1.40;;
72235;SDS011;60146;52.498;13.462;2023-05-16T12:50:13;3.03;;;1.57;;
72235;SDS011;60146;52.498;13.462;2023-05-16T12:55:17;7.50;;;1.50;;
72235;SDS011;60146;52.498;13.462;2023-05-16T12:57:44;8.80;;;1.63;;
72235;SDS011;60146;52.498;13.462;2023-05-16T13:00:12;6.30;;;1.30;;
72235;SDS011;60146;52.498;13.462;2023-05-16T13:02:38;5.88;;;1.67;;
72235;SDS011;60146;52.498;13.462;2023-05-16T13:05:04;5.68;;;1.48;;
72235;SDS011;60146;52.498;13.462;2023-05-16T13:07:31;9.23;;;1.50;;
72235;SDS011;60146;52.498;13.462;2023-05-16T13:09:56;10.55;;;1.90;;
72235;SDS011;60146;52.498;13.462;2023-05-16T13:12:22;3.67;;;1.33;;
72235;SDS011;60146;52.498;13.462;2023-05-16T13:14:50;4.72;;;1.08;;
72235;SDS011;60146;52.498;13.462;2023-05-16T13:17:16;5.22;;;1.30;;
72235;SDS011;60146;52.498;13.462;2023-05-16T13:19:41;3.67;;;1.20;;
72235;SDS011;60146;52.498;13.462;2023-05-16T13:22:07;6.20;;;1.10;;
72235;SDS011;60146;52.498;13.462;2023-05-16T13:24:32;5.85;;;1.35;;
72235;SDS011;60146;52.498;13.462;2023-05-16T13:26:58;9.10;;;1.67;;
72235;SDS011;60146;52.498;13.462;2023-05-16T13:29:23;6.63;;;1.17;;
72235;SDS011;60146;52.498;13.462;2023-05-16T13:31:48;8.52;;;1.65;;
72235;SDS011;60146;52.498;13.462;2023-05-16T13:34:14;6.20;;;1.40;;
72235;SDS011;60146;52.498;13.462;2023-05-16T13:36:39;4.95;;;1.10;;
72235;SDS011;60146;52.498;13.462;2023-05-16T13:39:05;2.47;;;0.90;;
72235;SDS011;60146;52.498;13.462;2023-05-16T13:41:30;5.68;;;1.30;;
72235;SDS011;60146;52.498;13.462;2023-05-16T13:43:56;2.80;;;0.90;;
72235;SDS011;60146;52.498;13.462;2023-05-16T13:46:21;5.35;;;1.42;;
72235;SDS011;60146;52.498;13.462;2023-05-16T13:48:46;5.50;;;1.20;;
72235;SDS011;60146;52.498;13.462;2023-05-16T13:51:12;8.07;;;1.73;;
72235;SDS011;60146;52.498;13.462;2023-05-16T13:53:38;4.53;;;1.40;;
72235;SDS011;60146;52.498;13.462;2023-05-16T13:56:04;8.82;;;1.45;;
72235;SDS011;60146;52.498;13.462;2023-05-16T13:58:29;7.82;;;1.27;;
72235;SDS011;60146;52.498;13.462;2023-05-16T14:00:54;5.28;;;1.30;;
72235;SDS011;60146;52.498;13.462;2023-05-16T14:03:20;5.38;;;1.30;;
72235;SDS011;60146;52.498;13.462;2023-05-16T14:05:47;3.75;;;0.90;;
72235;SDS011;60146;52.498;13.462;2023-05-16T14:08:12;6.15;;;1.30;;
72235;SDS011;60146;52.498;13.462;2023-05-16T14:10:38;3.97;;;1.25;;
72235;SDS011;60146;52.498;13.462;2023-05-16T14:13:03;5.82;;;1.25;;
72235;SDS011;60146;52.498;13.462;2023-05-16T14:15:29;7.35;;;1.05;;
72235;SDS011;60146;52.498;13.462;2023-05-16T14:17:55;4.20;;;1.30;;
72235;SDS011;60146;52.498;13.462;2023-05-16T14:20:21;5.28;;;1.10;;
72235;SDS011;60146;52.498;13.462;2023-05-16T14:22:46;8.43;;;1.40;;
72235;SDS011;60146;52.498;13.462;2023-05-16T14:25:12;5.95;;;1.27;;
72235;SDS011;60146;52.498;13.462;2023-05-16T14:27:38;4.50;;;1.27;;
72235;SDS011;60146;52.498;13.462;2023-05-16T14:30:03;2.60;;;0.90;;
72235;SDS011;60146;52.498;13.462;2023-05-16T14:32:32;5.47;;;1.15;;
72235;SDS011;60146;52.498;13.462;2023-05-16T14:34:57;5.15;;;0.95;;
72235;SDS011;60146;52.498;13.462;2023-05-16T14:37:23;6.43;;;1.13;;
72235;SDS011;60146;52.498;13.462;2023-05-16T14:39:49;5.97;;;1.02;;
72235;SDS011;60146;52.498;13.462;2023-05-16T14:42:14;8.82;;;1.63;;